sensor_id;sensor_type;location;lat;lon;timestamp;temperature;humidity
3756;DHT22;1893;52.526;13.360;2023-07-20T00:00:26;16.50;99.90
3756;DHT22;1893;52.526;13.360;2023-07-20T00:02:52;16.50;99.90
3756;DHT22;1893;52.526;13.360;2023-07-20T00:05:17;16.60;99.90
3756;DHT22;1893;52.526;13.360;2023-07-20T00:07:44;16.60;99.90
3756;DHT22;1893;52.526;13.360;2023-07-20T00:10:09;16.50;99.90
3756;DHT22;1893;52.526;13.360;2023-07-20T00:12:35;16.50;99.90
3756;DHT22;1893;52.526;13.360;2023-07-20T00:15:01;16.50;99.90
3756;DHT22;1893;52.526;13.360;2023-07-20T00:17:26;16.40;99.90
3756;DHT22;1893;52.526;13.360;2023-07-20T00:19:52;16.50;99.90
3756;DHT22;1893;52.526;13.360;2023-07-20T00:22:18;16.50;99.90
3756;DHT22;1893;52.526;13.360;2023-07-20T00:24:43;16.50;99.90
3756;DHT22;1893;52.526;13.360;2023-07-20T00:27:09;16.50;99.90
3756;DHT22;1893;52.526;13.360;2023-07-20T00:29:34;16.50;99.90
3756;DHT22;1893;52.526;13.360;2023-07-20T00:32:00;16.40;99.90
3756;DHT22;1893;52.526;13.360;2023-07-20T00:34:26;16.40;99.90
3756;DHT22;1893;52.526;13.360;2023-07-20T00:36:52;16.50;99.90
3756;DHT22;1893;52.526;13.360;2023-07-20T00:39:17;16.40;99.90
3756;DHT22;1893;52.526;13.360;2023-07-20T00:41:43;16.40;99.90
3756;DHT22;1893;52.526;13.360;2023-07-20T00:44:09;16.40;99.90
3756;DHT22;1893;52.526;13.360;2023-07-20T00:46:34;16.40;99.90
3756;DHT22;1893;52.526;13.360;2023-07-20T00:49:00;16.40;99.90
3756;DHT22;1893;52.526;13.360;2023-07-20T00:51:26;16.30;99.90
3756;DHT22;1893;52.526;13.360;2023-07-20T00:53:53;16.30;99.90
3756;DHT22;1893;52.526;13.360;2023-07-20T00:56:19;16.30;99.90
3756;DHT22;1893;52.526;13.360;2023-07-20T00:58:44;16.30;99.90
3756;DHT22;1893;52.526;13.360;2023-07-20T01:01:11;16.30;99.90
3756;DHT22;1893;52.526;13.360;2023-07-20T01:03:37;16.20;99.90
3756;DHT22;1893;52.526;13.360;2023-07-20T01:09:58;16.20;99.90
3756;DHT22;1893;52.526;13.360;2023-07-20T01:12:12;16.20;99.90
3756;DHT22;1893;52.526;13.360;2023-07-20T01:14:39;16.20;99.90
3756;DHT22;1893;52.526;13.360;2023-07-20T01:17:05;16.10;99.90
3756;DHT22;1893;52.526;13.360;2023-07-20T01:19:31;16.20;99.90
3756;DHT22;1893;52.526;13.360;2023-07-20T01:33:03;16.10;99.90
3756;DHT22;1893;52.526;13.360;2023-07-20T01:35:30;16.10;99.90
3756;DHT22;1893;52.526;13.360;2023-07-20T01:37:57;16.10;99.90
3756;DHT22;1893;52.526;13.360;2023-07-20T01:40:25;16.10;99.90
3756;DHT22;1893;52.526;13.360;2023-07-20T01:42:52;16.00;99.90
3756;DHT22;1893;52.526;13.360;2023-07-20T01:45:17;16.10;99.90
3756;DHT22;1893;52.526;13.360;2023-07-20T01:47:43;16.10;99.90
3756;DHT22;1893;52.526;13.360;2023-07-20T01:50:09;16.10;99.90
3756;DHT22;1893;52.526;13.360;2023-07-20T01:52:35;16.10;99.90
3756;DHT22;1893;52.526;13.360;2023-07-20T01:55:00;16.00;99.90
3756;DHT22;1893;52.526;13.360;2023-07-20T01:57:26;16.00;99.90
3756;DHT22;1893;52.526;13.360;2023-07-20T01:59:52;15.90;99.90
3756;DHT22;1893;52.526;13.360;2023-07-20T02:02:18;15.90;99.90
3756;DHT22;1893;52.526;13.360;2023-07-20T02:04:44;15.90;99.90
3756;DHT22;1893;52.526;13.360;2023-07-20T02:07:09;15.90;99.90
3756;DHT22;1893;52.526;13.360;2023-07-20T02:09:35;15.90;99.90
3756;DHT22;1893;52.526;13.360;2023-07-20T02:12:00;15.90;99.90
3756;DHT22;1893;52.526;13.360;2023-07-20T02:14:26;15.80;99.90
3756;DHT22;1893;52.526;13.360;2023-07-20T02:16:52;15.90;99.90
3756;DHT22;1893;52.526;13.360;2023-07-20T02:19:21;15.90;99.90
3756;DHT22;1893;52.526;13.360;2023-07-20T02:21:46;15.90;99.90
3756;DHT22;1893;52.526;13.360;2023-07-20T02:24:13;15.90;99.90
3756;DHT22;1893;52.526;13.360;2023-07-20T02:26:38;15.90;99.90
3756;DHT22;1893;52.526;13.360;2023-07-20T02:29:04;15.90;99.90
3756;DHT22;1893;52.526;13.360;2023-07-20T02:31:33;15.90;99.90
3756;DHT22;1893;52.526;13.360;2023-07-20T02:33:59;15.90;99.90
3756;DHT22;1893;52.526;13.360;2023-07-20T02:36:24;15.80;99.90
3756;DHT22;1893;52.526;13.360;2023-07-20T02:38:50;15.80;99.90
3756;DHT22;1893;52.526;13.360;2023-07-20T02:41:15;15.80;99.90
3756;DHT22;1893;52.526;13.360;2023-07-20T02:43:41;15.80;99.90
3756;DHT22;1893;52.526;13.360;2023-07-20T02:46:07;15.70;99.90
3756;DHT22;1893;52.526;13.360;2023-07-20T02:48:32;15.80;99.90
3756;DHT22;1893;52.526;13.360;2023-07-20T02:50:58;15.60;99.90
3756;DHT22;1893;52.526;13.360;2023-07-20T02:53:23;15.70;99.90
3756;DHT22;1893;52.526;13.360;2023-07-20T02:55:49;15.60;99.90
3756;DHT22;1893;52.526;13.360;2023-07-20T02:58:15;15.70;99.90
3756;DHT22;1893;52.526;13.360;2023-07-20T03:00:42;15.70;99.90
3756;DHT22;1893;52.526;13.360;2023-07-20T03:03:09;15.70;99.90
3756;DHT22;1893;52.526;13.360;2023-07-20T03:05:35;15.60;99.90
3756;DHT22;1893;52.526;13.360;2023-07-20T03:08:01;15.60;99.90
3756;DHT22;1893;52.526;13.360;2023-07-20T03:10:28;15.60;99.90
3756;DHT22;1893;52.526;13.360;2023-07-20T03:12:54;15.60;99.90
3756;DHT22;1893;52.526;13.360;2023-07-20T03:15:19;15.70;99.90
3756;DHT22;1893;52.526;13.360;2023-07-20T03:17:45;15.70;99.90
3756;DHT22;1893;52.526;13.360;2023-07-20T03:20:11;15.70;99.90
3756;DHT22;1893;52.526;13.360;2023-07-20T03:22:38;15.80;99.90
3756;DHT22;1893;52.526;13.360;2023-07-20T03:25:04;15.90;99.90
3756;DHT22;1893;52.526;13.360;2023-07-20T03:27:30;15.80;99.90
3756;DHT22;1893;52.526;13.360;2023-07-20T03:29:55;15.90;99.90
3756;DHT22;1893;52.526;13.360;2023-07-20T03:32:21;15.80;99.90
3756;DHT22;1893;52.526;13.360;2023-07-20T03:34:47;15.80;99.90
3756;DHT22;1893;52.526;13.360;2023-07-20T03:37:13;15.80;99.90
3756;DHT22;1893;52.526;13.360;2023-07-20T03:39:38;15.70;99.90
3756;DHT22;1893;52.526;13.360;2023-07-20T03:42:04;15.70;99.90
3756;DHT22;1893;52.526;13.360;2023-07-20T03:44:30;15.70;99.90
3756;DHT22;1893;52.526;13.360;2023-07-20T03:46:56;15.70;99.90
3756;DHT22;1893;52.526;13.360;2023-07-20T03:49:21;15.80;99.90
3756;DHT22;1893;52.526;13.360;2023-07-20T03:51:47;15.70;99.90
3756;DHT22;1893;52.526;13.360;2023-07-20T03:54:13;15.60;99.90
3756;DHT22;1893;52.526;13.360;2023-07-20T03:56:38;15.60;99.90
3756;DHT22;1893;52.526;13.360;2023-07-20T03:59:04;15.60;99.90
3756;DHT22;1893;52.526;13.360;2023-07-20T04:01:30;15.60;99.90
3756;DHT22;1893;52.526;13.360;2023-07-20T04:03:56;15.60;99.90
3756;DHT22;1893;52.526;13.360;2023-07-20T04:06:21;15.70;99.90
3756;DHT22;1893;52.526;13.360;2023-07-20T04:08:47;15.70;99.90
3756;DHT22;1893;52.526;13.360;2023-07-20T04:11:13;15.70;99.90
3756;DHT22;1893;52.526;13.360;2023-07-20T04:13:39;15.70;99.90
3756;DHT22;1893;52.526;13.360;2023-07-20T04:16:04;15.70;99.90
3756;DHT22;1893;52.526;13.360;2023-07-20T04:18:30;15.60;99.90
3756;DHT22;1893;52.526;13.360;2023-07-20T04:20:56;15.70;99.90
3756;DHT22;1893;52.526;13.360;2023-07-20T04:23:21;15.70;99.90
3756;DHT22;1893;52.526;13.360;2023-07-20T04:25:47;15.80;99.90
3756;DHT22;1893;52.526;13.360;2023-07-20T04:28:12;15.70;99.90
3756;DHT22;1893;52.526;13.360;2023-07-20T04:30:39;15.80;99.90
3756;DHT22;1893;52.526;13.360;2023-07-20T04:33:05;15.80;99.90
3756;DHT22;1893;52.526;13.360;2023-07-20T04:35:53;15.80;99.90
3756;DHT22;1893;52.526;13.360;2023-07-20T04:38:20;15.90;99.90
3756;DHT22;1893;52.526;13.360;2023-07-20T04:40:47;15.80;99.90
3756;DHT22;1893;52.526;13.360;2023-07-20T04:43:14;15.90;99.90
3756;DHT22;1893;52.526;13.360;2023-07-20T04:45:39;15.80;99.90
3756;DHT22;1893;52.526;13.360;2023-07-20T04:48:09;15.90;99.90
3756;DHT22;1893;52.526;13.360;2023-07-20T04:50:35;15.80;99.90
3756;DHT22;1893;52.526;13.360;2023-07-20T04:53:02;15.80;99.90
3756;DHT22;1893;52.526;13.360;2023-07-20T04:55:28;15.90;99.90
3756;DHT22;1893;52.526;13.360;2023-07-20T04:57:53;15.90;99.90
3756;DHT22;1893;52.526;13.360;2023-07-20T05:00:19;15.90;99.90
3756;DHT22;1893;52.526;13.360;2023-07-20T05:02:55;15.90;99.90
3756;DHT22;1893;52.526;13.360;2023-07-20T05:05:21;16.00;99.90
3756;DHT22;1893;52.526;13.360;2023-07-20T05:07:47;16.10;99.90
3756;DHT22;1893;52.526;13.360;2023-07-20T05:10:12;16.10;99.90
3756;DHT22;1893;52.526;13.360;2023-07-20T05:12:38;16.10;99.90
3756;DHT22;1893;52.526;13.360;2023-07-20T05:15:04;16.10;99.90
3756;DHT22;1893;52.526;13.360;2023-07-20T05:17:30;16.00;99.90
3756;DHT22;1893;52.526;13.360;2023-07-20T05:19:55;16.00;99.90
3756;DHT22;1893;52.526;13.360;2023-07-20T05:22:21;16.20;99.90
3756;DHT22;1893;52.526;13.360;2023-07-20T05:24:47;16.10;99.90
3756;DHT22;1893;52.526;13.360;2023-07-20T05:27:12;16.10;99.90
3756;DHT22;1893;52.526;13.360;2023-07-20T05:29:42;16.00;99.90
3756;DHT22;1893;52.526;13.360;2023-07-20T05:32:08;16.00;99.90
3756;DHT22;1893;52.526;13.360;2023-07-20T05:34:35;16.00;99.90
3756;DHT22;1893;52.526;13.360;2023-07-20T05:37:00;16.20;99.90
3756;DHT22;1893;52.526;13.360;2023-07-20T05:39:26;16.40;99.90
3756;DHT22;1893;52.526;13.360;2023-07-20T05:41:52;16.60;99.90
3756;DHT22;1893;52.526;13.360;2023-07-20T05:44:17;16.80;99.90
3756;DHT22;1893;52.526;13.360;2023-07-20T05:46:43;16.90;99.90
3756;DHT22;1893;52.526;13.360;2023-07-20T05:49:08;16.80;99.90
3756;DHT22;1893;52.526;13.360;2023-07-20T05:51:35;16.80;99.90
3756;DHT22;1893;52.526;13.360;2023-07-20T05:54:01;16.60;99.90
3756;DHT22;1893;52.526;13.360;2023-07-20T05:56:26;16.60;99.90
3756;DHT22;1893;52.526;13.360;2023-07-20T05:58:52;16.60;99.90
3756;DHT22;1893;52.526;13.360;2023-07-20T06:01:17;16.60;99.90
3756;DHT22;1893;52.526;13.360;2023-07-20T06:03:44;16.60;99.90
3756;DHT22;1893;52.526;13.360;2023-07-20T06:06:10;16.60;99.90
3756;DHT22;1893;52.526;13.360;2023-07-20T06:08:37;16.50;99.90
3756;DHT22;1893;52.526;13.360;2023-07-20T06:11:03;16.50;99.90
3756;DHT22;1893;52.526;13.360;2023-07-20T06:13:29;16.60;99.90
3756;DHT22;1893;52.526;13.360;2023-07-20T06:15:56;16.60;99.90
3756;DHT22;1893;52.526;13.360;2023-07-20T06:18:25;16.70;99.90
3756;DHT22;1893;52.526;13.360;2023-07-20T06:20:51;16.80;99.90
3756;DHT22;1893;52.526;13.360;2023-07-20T06:23:19;17.00;99.90
3756;DHT22;1893;52.526;13.360;2023-07-20T06:25:44;17.00;99.90
3756;DHT22;1893;52.526;13.360;2023-07-20T06:28:11;17.00;99.90
3756;DHT22;1893;52.526;13.360;2023-07-20T06:30:36;16.90;99.90
3756;DHT22;1893;52.526;13.360;2023-07-20T06:33:02;17.20;99.90
3756;DHT22;1893;52.526;13.360;2023-07-20T06:35:28;17.30;99.90
3756;DHT22;1893;52.526;13.360;2023-07-20T06:37:53;17.50;99.90
3756;DHT22;1893;52.526;13.360;2023-07-20T06:40:19;17.40;99.90
3756;DHT22;1893;52.526;13.360;2023-07-20T06:42:45;17.30;99.90
3756;DHT22;1893;52.526;13.360;2023-07-20T06:45:10;17.10;99.90
3756;DHT22;1893;52.526;13.360;2023-07-20T06:47:39;17.20;99.90
3756;DHT22;1893;52.526;13.360;2023-07-20T06:50:06;17.10;99.90
3756;DHT22;1893;52.526;13.360;2023-07-20T06:52:32;17.10;99.90
3756;DHT22;1893;52.526;13.360;2023-07-20T06:54:58;17.20;99.90
3756;DHT22;1893;52.526;13.360;2023-07-20T06:57:24;17.30;99.90
3756;DHT22;1893;52.526;13.360;2023-07-20T06:59:50;17.60;99.90
3756;DHT22;1893;52.526;13.360;2023-07-20T07:02:15;17.70;99.90
3756;DHT22;1893;52.526;13.360;2023-07-20T07:04:42;17.50;99.90
3756;DHT22;1893;52.526;13.360;2023-07-20T07:07:07;17.60;99.90
3756;DHT22;1893;52.526;13.360;2023-07-20T07:09:34;17.70;99.90
3756;DHT22;1893;52.526;13.360;2023-07-20T07:11:59;17.70;99.90
3756;DHT22;1893;52.526;13.360;2023-07-20T07:14:25;17.90;99.90
3756;DHT22;1893;52.526;13.360;2023-07-20T07:16:51;18.20;99.90
3756;DHT22;1893;52.526;13.360;2023-07-20T07:19:16;18.30;99.90
3756;DHT22;1893;52.526;13.360;2023-07-20T07:21:42;18.30;99.90
3756;DHT22;1893;52.526;13.360;2023-07-20T07:24:08;18.40;99.90
3756;DHT22;1893;52.526;13.360;2023-07-20T07:26:35;18.50;99.90
3756;DHT22;1893;52.526;13.360;2023-07-20T07:29:01;18.70;99.90
3756;DHT22;1893;52.526;13.360;2023-07-20T07:31:29;18.90;99.90
3756;DHT22;1893;52.526;13.360;2023-07-20T07:33:54;18.50;99.90
3756;DHT22;1893;52.526;13.360;2023-07-20T07:36:20;18.40;99.90
3756;DHT22;1893;52.526;13.360;2023-07-20T07:38:46;18.50;99.90
3756;DHT22;1893;52.526;13.360;2023-07-20T07:41:11;18.70;99.90
3756;DHT22;1893;52.526;13.360;2023-07-20T07:43:37;18.90;99.90
3756;DHT22;1893;52.526;13.360;2023-07-20T07:46:04;19.10;99.90
3756;DHT22;1893;52.526;13.360;2023-07-20T07:48:29;19.20;99.90
3756;DHT22;1893;52.526;13.360;2023-07-20T07:50:55;19.30;99.90
3756;DHT22;1893;52.526;13.360;2023-07-20T07:53:20;19.70;99.90
3756;DHT22;1893;52.526;13.360;2023-07-20T07:55:49;19.80;99.90
3756;DHT22;1893;52.526;13.360;2023-07-20T07:58:15;19.50;99.90
3756;DHT22;1893;52.526;13.360;2023-07-20T08:00:40;19.10;99.90
3756;DHT22;1893;52.526;13.360;2023-07-20T08:03:06;19.00;99.90
3756;DHT22;1893;52.526;13.360;2023-07-20T08:05:33;19.00;99.90
3756;DHT22;1893;52.526;13.360;2023-07-20T08:07:58;19.10;99.90
3756;DHT22;1893;52.526;13.360;2023-07-20T08:10:24;19.30;99.90
3756;DHT22;1893;52.526;13.360;2023-07-20T08:12:50;19.20;99.90
3756;DHT22;1893;52.526;13.360;2023-07-20T08:15:16;19.00;99.90
3756;DHT22;1893;52.526;13.360;2023-07-20T08:17:42;18.80;99.90
3756;DHT22;1893;52.526;13.360;2023-07-20T08:20:13;18.70;99.90
3756;DHT22;1893;52.526;13.360;2023-07-20T08:22:38;18.90;99.90
3756;DHT22;1893;52.526;13.360;2023-07-20T08:25:05;19.00;99.90
3756;DHT22;1893;52.526;13.360;2023-07-20T08:27:31;19.30;99.90
3756;DHT22;1893;52.526;13.360;2023-07-20T08:29:57;19.50;99.90
3756;DHT22;1893;52.526;13.360;2023-07-20T08:32:23;19.60;99.90
3756;DHT22;1893;52.526;13.360;2023-07-20T08:34:48;19.40;99.90
3756;DHT22;1893;52.526;13.360;2023-07-20T08:37:14;19.20;99.90
3756;DHT22;1893;52.526;13.360;2023-07-20T08:39:39;19.30;99.90
3756;DHT22;1893;52.526;13.360;2023-07-20T08:42:06;19.40;99.90
3756;DHT22;1893;52.526;13.360;2023-07-20T08:44:33;19.50;99.90
3756;DHT22;1893;52.526;13.360;2023-07-20T08:47:01;19.40;99.90
3756;DHT22;1893;52.526;13.360;2023-07-20T08:49:29;19.80;99.90
3756;DHT22;1893;52.526;13.360;2023-07-20T08:51:57;20.30;99.90
3756;DHT22;1893;52.526;13.360;2023-07-20T08:54:25;20.20;99.90
3756;DHT22;1893;52.526;13.360;2023-07-20T08:56:54;20.40;99.90
3756;DHT22;1893;52.526;13.360;2023-07-20T08:59:22;20.60;99.90
3756;DHT22;1893;52.526;13.360;2023-07-20T09:01:49;20.90;99.90
3756;DHT22;1893;52.526;13.360;2023-07-20T09:04:15;20.80;99.90
3756;DHT22;1893;52.526;13.360;2023-07-20T09:06:41;20.90;99.90
3756;DHT22;1893;52.526;13.360;2023-07-20T09:09:07;20.70;99.90
3756;DHT22;1893;52.526;13.360;2023-07-20T09:11:32;20.80;99.90
3756;DHT22;1893;52.526;13.360;2023-07-20T09:14:05;20.90;99.90
3756;DHT22;1893;52.526;13.360;2023-07-20T09:16:31;21.10;99.90
3756;DHT22;1893;52.526;13.360;2023-07-20T09:19:00;21.30;99.90
3756;DHT22;1893;52.526;13.360;2023-07-20T09:21:29;21.30;99.90
3756;DHT22;1893;52.526;13.360;2023-07-20T09:23:56;21.20;99.90
3756;DHT22;1893;52.526;13.360;2023-07-20T09:26:22;21.20;99.90
3756;DHT22;1893;52.526;13.360;2023-07-20T09:28:50;21.30;99.90
3756;DHT22;1893;52.526;13.360;2023-07-20T09:31:18;21.50;99.90
3756;DHT22;1893;52.526;13.360;2023-07-20T09:33:44;21.80;99.90
3756;DHT22;1893;52.526;13.360;2023-07-20T09:36:10;21.70;99.90
3756;DHT22;1893;52.526;13.360;2023-07-20T09:38:41;21.40;99.90
3756;DHT22;1893;52.526;13.360;2023-07-20T09:41:07;20.80;99.90
3756;DHT22;1893;52.526;13.360;2023-07-20T09:43:34;20.40;99.90
3756;DHT22;1893;52.526;13.360;2023-07-20T09:46:00;20.10;99.90
3756;DHT22;1893;52.526;13.360;2023-07-20T09:48:26;19.80;99.90
3756;DHT22;1893;52.526;13.360;2023-07-20T09:50:53;19.50;99.90
3756;DHT22;1893;52.526;13.360;2023-07-20T09:53:19;19.30;99.90
3756;DHT22;1893;52.526;13.360;2023-07-20T09:55:48;19.10;99.90
3756;DHT22;1893;52.526;13.360;2023-07-20T09:58:15;18.90;99.90
3756;DHT22;1893;52.526;13.360;2023-07-20T10:00:42;18.70;99.90
3756;DHT22;1893;52.526;13.360;2023-07-20T10:03:11;18.50;99.90
3756;DHT22;1893;52.526;13.360;2023-07-20T10:05:40;18.50;99.90
3756;DHT22;1893;52.526;13.360;2023-07-20T10:08:12;18.50;99.90
3756;DHT22;1893;52.526;13.360;2023-07-20T10:10:41;18.50;99.90
3756;DHT22;1893;52.526;13.360;2023-07-20T10:13:12;18.50;99.90
3756;DHT22;1893;52.526;13.360;2023-07-20T10:15:49;18.60;99.90
3756;DHT22;1893;52.526;13.360;2023-07-20T10:18:25;18.60;99.90
3756;DHT22;1893;52.526;13.360;2023-07-20T10:20:54;18.60;99.90
3756;DHT22;1893;52.526;13.360;2023-07-20T10:23:21;18.70;99.90
3756;DHT22;1893;52.526;13.360;2023-07-20T10:25:47;18.90;99.90
3756;DHT22;1893;52.526;13.360;2023-07-20T10:28:14;18.80;99.90
3756;DHT22;1893;52.526;13.360;2023-07-20T10:30:40;18.70;99.90
3756;DHT22;1893;52.526;13.360;2023-07-20T10:33:07;18.70;99.90
3756;DHT22;1893;52.526;13.360;2023-07-20T10:36:01;18.80;99.90
3756;DHT22;1893;52.526;13.360;2023-07-20T10:38:52;19.10;99.90
3756;DHT22;1893;52.526;13.360;2023-07-20T10:44:07;19.00;99.90
3756;DHT22;1893;52.526;13.360;2023-07-20T10:49:06;19.00;99.90
3756;DHT22;1893;52.526;13.360;2023-07-20T10:51:58;19.00;99.90
3756;DHT22;1893;52.526;13.360;2023-07-20T10:54:46;19.20;99.90
3756;DHT22;1893;52.526;13.360;2023-07-20T10:59:48;19.30;99.90
3756;DHT22;1893;52.526;13.360;2023-07-20T11:02:18;19.40;99.90
3756;DHT22;1893;52.526;13.360;2023-07-20T11:04:46;19.40;99.90
3756;DHT22;1893;52.526;13.360;2023-07-20T11:07:36;19.50;99.90
3756;DHT22;1893;52.526;13.360;2023-07-20T11:10:13;19.90;99.90
3756;DHT22;1893;52.526;13.360;2023-07-20T11:12:40;20.60;99.90
3756;DHT22;1893;52.526;13.360;2023-07-20T11:15:06;20.60;99.90
3756;DHT22;1893;52.526;13.360;2023-07-20T11:17:32;20.40;99.90
3756;DHT22;1893;52.526;13.360;2023-07-20T11:20:00;20.40;99.90
3756;DHT22;1893;52.526;13.360;2023-07-20T11:22:30;20.20;99.90
3756;DHT22;1893;52.526;13.360;2023-07-20T11:24:57;19.90;99.90
3756;DHT22;1893;52.526;13.360;2023-07-20T11:27:22;20.00;99.90
3756;DHT22;1893;52.526;13.360;2023-07-20T11:29:48;21.00;99.90
3756;DHT22;1893;52.526;13.360;2023-07-20T11:32:24;21.00;99.90
3756;DHT22;1893;52.526;13.360;2023-07-20T11:34:49;21.40;99.90
3756;DHT22;1893;52.526;13.360;2023-07-20T11:37:16;21.80;99.90
3756;DHT22;1893;52.526;13.360;2023-07-20T11:39:42;23.20;99.90
3756;DHT22;1893;52.526;13.360;2023-07-20T11:42:08;23.70;99.90
3756;DHT22;1893;52.526;13.360;2023-07-20T11:44:34;23.80;99.90
3756;DHT22;1893;52.526;13.360;2023-07-20T11:47:05;23.20;99.90
3756;DHT22;1893;52.526;13.360;2023-07-20T11:49:38;23.10;99.90
3756;DHT22;1893;52.526;13.360;2023-07-20T11:52:13;22.40;99.90
3756;DHT22;1893;52.526;13.360;2023-07-20T11:54:41;22.10;99.90
3756;DHT22;1893;52.526;13.360;2023-07-20T11:57:15;21.90;99.90
3756;DHT22;1893;52.526;13.360;2023-07-20T11:59:53;21.30;99.90
3756;DHT22;1893;52.526;13.360;2023-07-20T12:02:21;20.90;99.90
3756;DHT22;1893;52.526;13.360;2023-07-20T12:04:47;20.70;99.90
3756;DHT22;1893;52.526;13.360;2023-07-20T12:07:13;20.30;99.90
3756;DHT22;1893;52.526;13.360;2023-07-20T12:09:39;20.10;99.90
3756;DHT22;1893;52.526;13.360;2023-07-20T12:12:10;19.80;99.90
3756;DHT22;1893;52.526;13.360;2023-07-20T12:14:37;19.70;99.90
3756;DHT22;1893;52.526;13.360;2023-07-20T12:17:03;19.60;99.90
3756;DHT22;1893;52.526;13.360;2023-07-20T12:19:28;19.50;99.90
3756;DHT22;1893;52.526;13.360;2023-07-20T12:21:57;19.80;99.90
3756;DHT22;1893;52.526;13.360;2023-07-20T12:24:24;19.90;99.90
3756;DHT22;1893;52.526;13.360;2023-07-20T12:26:56;20.20;99.90
3756;DHT22;1893;52.526;13.360;2023-07-20T12:29:22;20.30;99.90
3756;DHT22;1893;52.526;13.360;2023-07-20T12:31:48;20.30;99.90
3756;DHT22;1893;52.526;13.360;2023-07-20T12:34:13;20.10;99.90
3756;DHT22;1893;52.526;13.360;2023-07-20T12:36:39;20.00;99.90
3756;DHT22;1893;52.526;13.360;2023-07-20T12:39:05;20.00;99.90
3756;DHT22;1893;52.526;13.360;2023-07-20T12:41:30;20.20;99.90
3756;DHT22;1893;52.526;13.360;2023-07-20T12:43:56;20.60;99.90
3756;DHT22;1893;52.526;13.360;2023-07-20T12:46:24;21.40;99.90
3756;DHT22;1893;52.526;13.360;2023-07-20T12:48:49;21.70;99.90
3756;DHT22;1893;52.526;13.360;2023-07-20T12:51:15;21.70;99.90
3756;DHT22;1893;52.526;13.360;2023-07-20T12:53:41;21.50;99.90
3756;DHT22;1893;52.526;13.360;2023-07-20T12:56:06;21.30;99.90
3756;DHT22;1893;52.526;13.360;2023-07-20T12:58:32;21.40;99.90
3756;DHT22;1893;52.526;13.360;2023-07-20T13:00:58;21.70;99.90
3756;DHT22;1893;52.526;13.360;2023-07-20T13:03:23;21.90;99.90
3756;DHT22;1893;52.526;13.360;2023-07-20T13:05:49;22.00;99.90
3756;DHT22;1893;52.526;13.360;2023-07-20T13:08:15;22.10;99.90
3756;DHT22;1893;52.526;13.360;2023-07-20T13:10:43;22.40;99.90
3756;DHT22;1893;52.526;13.360;2023-07-20T13:13:08;22.50;99.90
3756;DHT22;1893;52.526;13.360;2023-07-20T13:15:42;22.80;99.90
3756;DHT22;1893;52.526;13.360;2023-07-20T13:18:08;23.10;99.90
3756;DHT22;1893;52.526;13.360;2023-07-20T13:20:33;22.80;99.90
3756;DHT22;1893;52.526;13.360;2023-07-20T13:22:59;22.90;99.90
3756;DHT22;1893;52.526;13.360;2023-07-20T13:25:25;22.80;99.90
3756;DHT22;1893;52.526;13.360;2023-07-20T13:27:50;23.00;99.90
3756;DHT22;1893;52.526;13.360;2023-07-20T13:30:16;23.00;99.90
3756;DHT22;1893;52.526;13.360;2023-07-20T13:32:45;22.70;99.90
3756;DHT22;1893;52.526;13.360;2023-07-20T13:35:11;22.70;99.90
3756;DHT22;1893;52.526;13.360;2023-07-20T13:37:37;22.60;99.90
3756;DHT22;1893;52.526;13.360;2023-07-20T13:40:03;22.70;99.90
3756;DHT22;1893;52.526;13.360;2023-07-20T13:42:31;22.90;99.90
3756;DHT22;1893;52.526;13.360;2023-07-20T13:44:57;23.00;99.90
3756;DHT22;1893;52.526;13.360;2023-07-20T13:47:22;23.20;99.90
3756;DHT22;1893;52.526;13.360;2023-07-20T13:49:48;23.30;99.90
3756;DHT22;1893;52.526;13.360;2023-07-20T13:52:14;22.80;99.90
3756;DHT22;1893;52.526;13.360;2023-07-20T13:54:39;23.00;99.90
3756;DHT22;1893;52.526;13.360;2023-07-20T13:57:05;23.30;99.90
3756;DHT22;1893;52.526;13.360;2023-07-20T13:59:31;23.10;99.90
3756;DHT22;1893;52.526;13.360;2023-07-20T14:01:56;23.00;99.90
3756;DHT22;1893;52.526;13.360;2023-07-20T14:04:22;22.90;99.90
3756;DHT22;1893;52.526;13.360;2023-07-20T14:06:48;22.90;99.90
3756;DHT22;1893;52.526;13.360;2023-07-20T14:09:13;23.30;99.90
3756;DHT22;1893;52.526;13.360;2023-07-20T14:11:39;23.40;99.90
3756;DHT22;1893;52.526;13.360;2023-07-20T14:14:05;23.40;99.90
3756;DHT22;1893;52.526;13.360;2023-07-20T14:16:30;23.30;99.90
3756;DHT22;1893;52.526;13.360;2023-07-20T14:18:57;23.20;99.90
3756;DHT22;1893;52.526;13.360;2023-07-20T14:21:23;23.10;99.90
3756;DHT22;1893;52.526;13.360;2023-07-20T14:23:51;23.10;99.90
3756;DHT22;1893;52.526;13.360;2023-07-20T14:26:18;22.90;99.90
3756;DHT22;1893;52.526;13.360;2023-07-20T14:28:44;22.90;99.90
3756;DHT22;1893;52.526;13.360;2023-07-20T14:31:09;23.30;99.90
3756;DHT22;1893;52.526;13.360;2023-07-20T14:33:35;23.20;99.90
3756;DHT22;1893;52.526;13.360;2023-07-20T14:36:01;23.00;99.90
3756;DHT22;1893;52.526;13.360;2023-07-20T14:38:34;23.20;99.90
3756;DHT22;1893;52.526;13.360;2023-07-20T14:41:00;23.20;99.90
3756;DHT22;1893;52.526;13.360;2023-07-20T14:43:25;23.30;99.90
3756;DHT22;1893;52.526;13.360;2023-07-20T14:45:51;23.40;99.90
3756;DHT22;1893;52.526;13.360;2023-07-20T14:48:17;23.30;99.90
3756;DHT22;1893;52.526;13.360;2023-07-20T14:50:42;23.40;99.90
3756;DHT22;1893;52.526;13.360;2023-07-20T14:53:11;23.40;99.90
3756;DHT22;1893;52.526;13.360;2023-07-20T14:55:37;23.40;99.90
3756;DHT22;1893;52.526;13.360;2023-07-20T14:58:03;23.40;99.80
3756;DHT22;1893;52.526;13.360;2023-07-20T15:00:28;23.30;99.90
3756;DHT22;1893;52.526;13.360;2023-07-20T15:02:55;23.30;99.90
3756;DHT22;1893;52.526;13.360;2023-07-20T15:05:22;23.10;99.90
3756;DHT22;1893;52.526;13.360;2023-07-20T15:07:49;23.00;99.90
3756;DHT22;1893;52.526;13.360;2023-07-20T15:10:15;23.10;99.90
3756;DHT22;1893;52.526;13.360;2023-07-20T15:12:41;23.10;99.90
3756;DHT22;1893;52.526;13.360;2023-07-20T15:15:12;23.00;99.60
3756;DHT22;1893;52.526;13.360;2023-07-20T15:17:39;22.90;99.90
3756;DHT22;1893;52.526;13.360;2023-07-20T15:20:06;23.00;99.90
3756;DHT22;1893;52.526;13.360;2023-07-20T15:22:33;22.80;99.90
3756;DHT22;1893;52.526;13.360;2023-07-20T15:24:59;22.60;99.50
3756;DHT22;1893;52.526;13.360;2023-07-20T15:27:26;22.40;99.90
3756;DHT22;1893;52.526;13.360;2023-07-20T15:29:51;22.70;99.30
3756;DHT22;1893;52.526;13.360;2023-07-20T15:32:18;22.60;99.00
3756;DHT22;1893;52.526;13.360;2023-07-20T15:34:44;22.40;99.30
3756;DHT22;1893;52.526;13.360;2023-07-20T15:37:10;22.50;99.40
3756;DHT22;1893;52.526;13.360;2023-07-20T15:39:37;22.40;99.70
3756;DHT22;1893;52.526;13.360;2023-07-20T15:42:03;22.40;98.10
3756;DHT22;1893;52.526;13.360;2023-07-20T15:44:29;22.30;98.10
3756;DHT22;1893;52.526;13.360;2023-07-20T15:46:55;22.30;98.40
3756;DHT22;1893;52.526;13.360;2023-07-20T15:49:21;22.30;98.10
3756;DHT22;1893;52.526;13.360;2023-07-20T15:51:46;22.20;98.90
3756;DHT22;1893;52.526;13.360;2023-07-20T15:54:13;22.20;99.30
3756;DHT22;1893;52.526;13.360;2023-07-20T15:56:40;22.10;99.80
3756;DHT22;1893;52.526;13.360;2023-07-20T15:59:09;22.00;99.80
3756;DHT22;1893;52.526;13.360;2023-07-20T16:01:35;21.80;99.30
3756;DHT22;1893;52.526;13.360;2023-07-20T16:04:01;21.70;99.20